Time;durP1;ratioP1;P1;durP2;ratioP2;P2;SDS_P1;SDS_P2;PMS_P1;PMS_P2;Temp;Humidity;BMP_temperature;BMP_pressure;BME280_temperature;BME280_humidity;BME280_pressure;Samples;Min_cycle;Max_cycle;Signal;HPM_P1;HPM_P2
2023/05/13 00:01:16;;;;;;;8.20;5.28;;;;;;;;;;5015044;28;20030;-67
2023/05/13 00:03:41;;;;;;;10.02;5.53;;;;;;;;;;5006877;28;20053;-67
2023/05/13 00:06:07;;;;;;;8.23;5.07;;;;;;;;;;5010388;28;20057;-66
2023/05/13 00:08:32;;;;;;;9.60;5.60;;;;;;;;;;5013745;28;20022;-66
2023/05/13 00:10:57;;;;;;;8.98;5.78;;;;;;;;;;5007880;28;20040;-65
2023/05/13 00:13:22;;;;;;;9.18;5.63;;;;;;;;;;5011872;28;20021;-68
2023/05/13 00:15:47;;;;;;;8.52;5.28;;;;;;;;;;5012743;28;20030;-68
2023/05/13 00:18:12;;;;;;;10.10;5.60;;;;;;;;;;5011556;28;20107;-68
2023/05/13 00:20:38;;;;;;;8.88;5.50;;;;;;;;;;5006082;28;20018;-67
2023/05/13 00:23:03;;;;;;;8.93;5.38;;;;;;;;;;5008892;28;20105;-67
2023/05/13 00:25:28;;;;;;;9.63;5.40;;;;;;;;;;5009787;28;20588;-68
2023/05/13 00:27:53;;;;;;;9.83;5.63;;;;;;;;;;5010821;28;20016;-68
2023/05/13 00:30:19;;;;;;;9.57;5.65;;;;;;;;;;5011392;28;21449;-68
2023/05/13 00:32:44;;;;;;;10.55;5.43;;;;;;;;;;5012047;28;20044;-67
2023/05/13 00:35:10;;;;;;;9.02;5.35;;;;;;;;;;5010389;28;20026;-66
2023/05/13 00:37:35;;;;;;;9.93;5.77;;;;;;;;;;5010447;28;20025;-68
2023/05/13 00:40:00;;;;;;;9.23;5.43;;;;;;;;;;5010680;28;20092;-66
2023/05/13 00:42:25;;;;;;;9.07;5.17;;;;;;;;;;5009800;28;20493;-65
2023/05/13 00:44:50;;;;;;;8.02;4.80;;;;;;;;;;5012712;28;20033;-67
2023/05/13 00:47:15;;;;;;;8.60;5.80;;;;;;;;;;5010739;28;20036;-65
2023/05/13 00:49:41;;;;;;;7.50;4.43;;;;;;;;;;5012178;28;20464;-66
2023/05/13 00:52:06;;;;;;;9.30;4.90;;;;;;;;;;5008755;28;20580;-66
2023/05/13 00:54:31;;;;;;;7.63;5.10;;;;;;;;;;5009552;28;20084;-68
2023/05/13 00:56:58;;;;;;;8.90;4.90;;;;;;;;;;5008585;28;20511;-67
2023/05/13 00:59:24;;;;;;;8.75;5.32;;;;;;;;;;5010948;28;20061;-67
2023/05/13 01:02:08;;;;;;;9.48;5.18;;;;;;;;;;5009450;28;20393;-67
2023/05/13 01:04:37;;;;;;;9.70;5.50;;;;;;;;;;5011205;28;20026;-66
2023/05/13 01:07:05;;;;;;;9.63;5.18;;;;;;;;;;5008780;28;20108;-67
2023/05/13 01:09:40;;;;;;;8.80;5.28;;;;;;;;;;5010673;28;20017;-66
2023/05/13 01:12:10;;;;;;;9.40;5.53;;;;;;;;;;5010134;28;20045;-67
2023/05/13 01:14:38;;;;;;;8.60;5.03;;;;;;;;;;5012089;28;20541;-68
2023/05/13 01:17:07;;;;;;;8.40;4.63;;;;;;;;;;5008714;28;20037;-67
2023/05/13 01:19:50;;;;;;;8.00;4.88;;;;;;;;;;5010045;28;20022;-67
2023/05/13 01:22:16;;;;;;;9.20;5.15;;;;;;;;;;5010240;28;20026;-67
2023/05/13 01:24:41;;;;;;;8.57;4.75;;;;;;;;;;5008693;28;20029;-66
2023/05/13 01:27:06;;;;;;;10.40;5.22;;;;;;;;;;5009336;28;20033;-67
2023/05/13 01:29:31;;;;;;;10.07;6.00;;;;;;;;;;5007580;28;20489;-67
2023/05/13 01:31:57;;;;;;;7.33;4.70;;;;;;;;;;5011243;28;20056;-67
2023/05/13 01:34:23;;;;;;;8.38;4.95;;;;;;;;;;5011252;28;20026;-67
2023/05/13 01:36:48;;;;;;;8.38;4.80;;;;;;;;;;5011025;28;20072;-66
2023/05/13 01:39:14;;;;;;;8.63;5.22;;;;;;;;;;5003389;28;20030;-67
2023/05/13 01:41:39;;;;;;;9.82;5.40;;;;;;;;;;5009471;28;20022;-68
2023/05/13 01:44:05;;;;;;;8.87;5.33;;;;;;;;;;5002714;28;20101;-66
2023/05/13 01:46:30;;;;;;;9.13;4.97;;;;;;;;;;5007478;28;20109;-68
2023/05/13 01:48:55;;;;;;;8.77;5.40;;;;;;;;;;5008451;28;20083;-68
2023/05/13 01:51:20;;;;;;;9.63;5.63;;;;;;;;;;5007801;28;20060;-66
2023/05/13 01:53:46;;;;;;;11.50;5.77;;;;;;;;;;5001238;28;20671;-68
2023/05/13 01:56:11;;;;;;;8.67;5.27;;;;;;;;;;5005516;28;20026;-66
2023/05/13 01:58:36;;;;;;;9.90;5.67;;;;;;;;;;5008560;28;20026;-67
2023/05/13 02:01:02;;;;;;;11.07;5.72;;;;;;;;;;5001633;28;20457;-66
2023/05/13 02:03:27;;;;;;;10.45;5.10;;;;;;;;;;5008427;28;20025;-68
2023/05/13 02:05:52;;;;;;;9.30;5.57;;;;;;;;;;5010482;28;20030;-67
2023/05/13 02:08:18;;;;;;;10.93;5.22;;;;;;;;;;5010154;28;20018;-68
2023/05/13 02:10:43;;;;;;;9.97;5.57;;;;;;;;;;5004367;28;20029;-64
2023/05/13 02:13:08;;;;;;;9.23;5.40;;;;;;;;;;5004992;28;20028;-67
2023/05/13 02:15:33;;;;;;;8.60;5.28;;;;;;;;;;5010879;28;20014;-66
2023/05/13 02:17:58;;;;;;;7.87;5.43;;;;;;;;;;5010933;28;20010;-68
2023/05/13 02:20:25;;;;;;;9.10;5.87;;;;;;;;;;5005746;28;20029;-68
2023/05/13 02:22:50;;;;;;;7.97;5.30;;;;;;;;;;5010517;28;20021;-68
2023/05/13 02:25:15;;;;;;;8.93;5.37;;;;;;;;;;5008624;28;20101;-67
2023/05/13 02:27:40;;;;;;;10.23;5.85;;;;;;;;;;5003394;28;20053;-68
2023/05/13 02:30:06;;;;;;;10.65;5.88;;;;;;;;;;5007798;28;20025;-66
2023/05/13 02:32:31;;;;;;;9.18;5.43;;;;;;;;;;5007307;28;20109;-66
2023/05/13 02:34:56;;;;;;;8.50;5.13;;;;;;;;;;5007649;28;20072;-66
2023/05/13 02:37:21;;;;;;;10.23;5.27;;;;;;;;;;5007395;28;20025;-65
2023/05/13 02:39:46;;;;;;;8.10;5.15;;;;;;;;;;5009744;28;20022;-67
2023/05/13 02:42:11;;;;;;;8.93;4.80;;;;;;;;;;5007047;28;20034;-64
2023/05/13 02:44:37;;;;;;;8.75;5.30;;;;;;;;;;5010345;28;20108;-66
2023/05/13 02:47:02;;;;;;;7.40;4.85;;;;;;;;;;5010106;28;20022;-68
2023/05/13 02:49:27;;;;;;;9.32;5.55;;;;;;;;;;5009463;28;20107;-67
2023/05/13 02:51:52;;;;;;;8.63;5.30;;;;;;;;;;5009928;28;20025;-67
2023/05/13 02:54:17;;;;;;;9.00;5.22;;;;;;;;;;5005201;28;20469;-67
2023/05/13 02:56:42;;;;;;;8.48;5.03;;;;;;;;;;5005528;28;20117;-67
2023/05/13 02:59:07;;;;;;;11.40;5.57;;;;;;;;;;5008687;28;20040;-67
2023/05/13 03:01:32;;;;;;;9.27;5.83;;;;;;;;;;5008179;28;20375;-68
2023/05/13 03:03:58;;;;;;;9.85;5.65;;;;;;;;;;5008130;28;20065;-67
2023/05/13 03:06:23;;;;;;;8.95;5.18;;;;;;;;;;5008523;28;20022;-67
2023/05/13 03:08:48;;;;;;;9.55;5.60;;;;;;;;;;5007816;28;20022;-67
2023/05/13 03:11:13;;;;;;;14.25;6.43;;;;;;;;;;5008765;28;20064;-67
2023/05/13 03:13:38;;;;;;;8.93;5.53;;;;;;;;;;5005255;28;20026;-66
2023/05/13 03:16:03;;;;;;;7.88;5.18;;;;;;;;;;5006947;28;20026;-67
2023/05/13 03:18:31;;;;;;;8.23;4.90;;;;;;;;;;5008636;28;20025;-66
2023/05/13 03:20:56;;;;;;;10.05;5.10;;;;;;;;;;5005486;28;20021;-67
2023/05/13 03:23:21;;;;;;;9.73;5.45;;;;;;;;;;5008832;28;20080;-67
2023/05/13 03:25:46;;;;;;;8.55;4.80;;;;;;;;;;5007664;28;20029;-68
2023/05/13 03:28:11;;;;;;;7.73;4.67;;;;;;;;;;5008225;28;20014;-67
2023/05/13 03:30:37;;;;;;;8.83;4.50;;;;;;;;;;5005726;28;20053;-66
2023/05/13 03:33:02;;;;;;;9.25;4.90;;;;;;;;;;5008451;28;20123;-67
2023/05/13 03:35:27;;;;;;;8.80;4.63;;;;;;;;;;5005881;28;20018;-67
2023/05/13 03:37:52;;;;;;;8.70;5.00;;;;;;;;;;5008514;28;20084;-67
2023/05/13 03:40:18;;;;;;;9.35;5.32;;;;;;;;;;5006264;28;20087;-68
2023/05/13 03:42:43;;;;;;;8.23;5.07;;;;;;;;;;5005158;28;20022;-67
2023/05/13 03:45:08;;;;;;;8.43;5.03;;;;;;;;;;5004724;28;20022;-67
2023/05/13 03:47:34;;;;;;;8.85;5.13;;;;;;;;;;5006822;28;20437;-67
2023/05/13 03:49:59;;;;;;;10.55;5.13;;;;;;;;;;5005779;28;20425;-66
2023/05/13 03:52:24;;;;;;;8.38;4.75;;;;;;;;;;5004470;28;20034;-67
2023/05/13 03:54:49;;;;;;;8.38;5.07;;;;;;;;;;5005232;28;20445;-65
2023/05/13 03:57:14;;;;;;;9.63;4.97;;;;;;;;;;5006649;28;20033;-66
2023/05/13 03:59:41;;;;;;;8.00;5.20;;;;;;;;;;5000900;28;20021;-67
2023/05/13 04:02:06;;;;;;;;;;;;;;;;;;5006064;28;20441;-69
2023/05/13 04:04:31;;;;;;;10.02;5.05;;;;;;;;;;5007941;28;19913;-67
2023/05/13 04:06:56;;;;;;;9.17;4.90;;;;;;;;;;5007309;28;20030;-68
2023/05/13 04:09:22;;;;;;;8.75;4.70;;;;;;;;;;5007466;28;20096;-67
2023/05/13 04:11:47;;;;;;;8.35;4.60;;;;;;;;;;5005302;28;20030;-67
2023/05/13 04:14:12;;;;;;;7.57;4.45;;;;;;;;;;5008159;28;20464;-67
2023/05/13 04:16:37;;;;;;;6.60;3.97;;;;;;;;;;5007232;28;20056;-67
2023/05/13 04:19:02;;;;;;;6.30;4.00;;;;;;;;;;5002945;28;20030;-68
2023/05/13 04:21:28;;;;;;;7.60;3.90;;;;;;;;;;5014360;28;20118;-67
2023/05/13 04:23:53;;;;;;;7.10;4.20;;;;;;;;;;5014653;28;20036;-67
2023/05/13 04:26:19;;;;;;;6.47;3.88;;;;;;;;;;5016985;28;20030;-66
2023/05/13 04:28:44;;;;;;;8.07;4.32;;;;;;;;;;5021387;28;20087;-66
2023/05/13 04:31:10;;;;;;;6.32;3.97;;;;;;;;;;5023565;28;20041;-67
2023/05/13 04:33:35;;;;;;;6.60;3.92;;;;;;;;;;5025190;28;20125;-67
2023/05/13 04:36:00;;;;;;;8.13;3.88;;;;;;;;;;5011907;28;20040;-67
2023/05/13 04:38:25;;;;;;;8.05;3.90;;;;;;;;;;5011908;28;20497;-67
2023/05/13 04:40:51;;;;;;;7.07;4.00;;;;;;;;;;5006217;28;20022;-67
2023/05/13 04:43:16;;;;;;;6.93;3.67;;;;;;;;;;5038095;28;20489;-66
2023/05/13 04:45:41;;;;;;;7.25;4.15;;;;;;;;;;5009146;28;20513;-66
2023/05/13 04:48:06;;;;;;;7.53;4.15;;;;;;;;;;5006279;28;20117;-68
2023/05/13 04:50:31;;;;;;;8.17;4.00;;;;;;;;;;5005772;28;20026;-68
2023/05/13 04:52:57;;;;;;;6.65;3.60;;;;;;;;;;5004339;28;20032;-68
2023/05/13 04:55:22;;;;;;;6.82;3.50;;;;;;;;;;5004449;28;20053;-67
2023/05/13 04:57:47;;;;;;;7.57;3.73;;;;;;;;;;5006805;28;20038;-67
2023/05/13 05:00:12;;;;;;;7.20;3.33;;;;;;;;;;5011305;28;20018;-67
2023/05/13 05:02:37;;;;;;;7.43;4.18;;;;;;;;;;5011599;28;20104;-67
2023/05/13 05:05:04;;;;;;;6.65;3.47;;;;;;;;;;5010739;28;20029;-68
2023/05/13 05:07:29;;;;;;;6.43;3.60;;;;;;;;;;5012237;28;20026;-67
2023/05/13 05:09:54;;;;;;;7.83;3.53;;;;;;;;;;5013208;28;20021;-67
2023/05/13 05:12:19;;;;;;;6.65;3.60;;;;;;;;;;5009316;28;20022;-67
2023/05/13 05:14:44;;;;;;;6.78;3.42;;;;;;;;;;5001728;28;20125;-68
2023/05/13 05:17:10;;;;;;;8.50;3.73;;;;;;;;;;5009908;28;20021;-67
2023/05/13 05:19:35;;;;;;;8.93;4.70;;;;;;;;;;5007890;28;20025;-67
2023/05/13 05:22:00;;;;;;;7.70;4.90;;;;;;;;;;5008560;28;20048;-67
2023/05/13 05:24:25;;;;;;;7.35;4.55;;;;;;;;;;5007192;28;20030;-67
2023/05/13 05:26:50;;;;;;;6.55;4.60;;;;;;;;;;5009988;28;20032;-68
2023/05/13 05:29:16;;;;;;;7.70;4.47;;;;;;;;;;5011703;28;20021;-67
2023/05/13 05:31:41;;;;;;;7.07;4.10;;;;;;;;;;5011398;28;20033;-67
2023/05/13 05:34:06;;;;;;;7.63;4.07;;;;;;;;;;5008067;28;21018;-67
2023/05/13 05:36:31;;;;;;;6.13;3.40;;;;;;;;;;5011147;28;20026;-67
2023/05/13 05:38:56;;;;;;;7.53;3.77;;;;;;;;;;5008204;28;20532;-68
2023/05/13 05:41:22;;;;;;;5.40;3.08;;;;;;;;;;5009343;28;20029;-67
2023/05/13 05:43:47;;;;;;;6.07;3.20;;;;;;;;;;5010616;28;20030;-68
2023/05/13 05:46:12;;;;;;;6.72;3.45;;;;;;;;;;5008636;28;20477;-68
2023/05/13 05:48:37;;;;;;;5.97;3.10;;;;;;;;;;5005559;28;20481;-65
2023/05/13 05:51:03;;;;;;;6.70;3.47;;;;;;;;;;5025899;28;20022;-67
2023/05/13 05:53:28;;;;;;;8.17;3.40;;;;;;;;;;5010267;28;20103;-67
2023/05/13 05:55:53;;;;;;;6.47;3.50;;;;;;;;;;5012369;28;20472;-67
2023/05/13 05:58:18;;;;;;;6.45;3.63;;;;;;;;;;5010135;28;20713;-66
2023/05/13 06:00:43;;;;;;;8.20;3.10;;;;;;;;;;5007758;28;20033;-67
2023/05/13 06:03:09;;;;;;;6.15;3.05;;;;;;;;;;5007375;28;20378;-67
2023/05/13 06:05:34;;;;;;;8.73;3.53;;;;;;;;;;5004426;28;20062;-69
2023/05/13 06:08:00;;;;;;;5.80;3.20;;;;;;;;;;5006540;28;20489;-67
2023/05/13 06:10:25;;;;;;;6.05;3.38;;;;;;;;;;5008858;28;20088;-67
2023/05/13 06:12:50;;;;;;;6.00;3.15;;;;;;;;;;5008797;28;20021;-66
2023/05/13 06:15:15;;;;;;;6.07;3.10;;;;;;;;;;5008790;28;20460;-67
2023/05/13 06:17:40;;;;;;;6.10;3.43;;;;;;;;;;5010794;28;20053;-67
2023/05/13 06:20:06;;;;;;;6.60;3.47;;;;;;;;;;4998186;28;20386;-67
2023/05/13 06:22:31;;;;;;;6.78;2.97;;;;;;;;;;4994297;28;20068;-67
2023/05/13 06:24:56;;;;;;;6.00;3.50;;;;;;;;;;5008903;28;20541;-66
2023/05/13 06:27:22;;;;;;;5.93;3.20;;;;;;;;;;5006858;28;20096;-67
2023/05/13 06:29:47;;;;;;;6.40;3.15;;;;;;;;;;5010699;28;20466;-66
2023/05/13 06:32:12;;;;;;;7.15;3.35;;;;;;;;;;5013007;28;20022;-66
2023/05/13 06:34:39;;;;;;;6.82;3.38;;;;;;;;;;5008536;28;20030;-68
2023/05/13 06:37:04;;;;;;;8.38;3.35;;;;;;;;;;5009575;28;20049;-66
2023/05/13 06:39:29;;;;;;;9.67;3.27;;;;;;;;;;5007675;28;20060;-67
2023/05/13 06:41:54;;;;;;;6.15;3.22;;;;;;;;;;5011258;28;20025;-67
2023/05/13 06:44:19;;;;;;;6.53;3.50;;;;;;;;;;5017416;28;20018;-67
2023/05/13 06:46:45;;;;;;;5.82;3.28;;;;;;;;;;5018164;28;20032;-67
2023/05/13 06:49:10;;;;;;;5.03;2.85;;;;;;;;;;5020706;28;20036;-67
2023/05/13 06:51:35;;;;;;;7.15;3.38;;;;;;;;;;5005141;28;20022;-67
2023/05/13 06:54:00;;;;;;;7.28;2.90;;;;;;;;;;5005544;28;20013;-67
2023/05/13 06:56:26;;;;;;;6.90;3.20;;;;;;;;;;4998977;28;20318;-67
2023/05/13 06:58:51;;;;;;;5.20;3.00;;;;;;;;;;5000614;28;20024;-67
2023/05/13 07:01:17;;;;;;;6.47;3.30;;;;;;;;;;5000253;28;20038;-66
2023/05/13 07:03:42;;;;;;;6.25;3.17;;;;;;;;;;5004270;28;20053;-66
2023/05/13 07:06:08;;;;;;;6.30;3.13;;;;;;;;;;5005772;28;20032;-65
2023/05/13 07:08:33;;;;;;;6.27;2.50;;;;;;;;;;4997893;28;20022;-65
2023/05/13 07:10:58;;;;;;;5.77;2.53;;;;;;;;;;4999740;28;20460;-66
2023/05/13 07:13:23;;;;;;;5.07;2.50;;;;;;;;;;5005438;28;20088;-65
2023/05/13 07:15:48;;;;;;;4.97;2.40;;;;;;;;;;5005932;28;20022;-65
2023/05/13 07:18:14;;;;;;;6.10;2.70;;;;;;;;;;5004779;28;20033;-66
2023/05/13 07:20:39;;;;;;;5.67;2.60;;;;;;;;;;5006630;28;20451;-66
2023/05/13 07:23:04;;;;;;;4.53;2.50;;;;;;;;;;5001623;28;20478;-66
2023/05/13 07:25:29;;;;;;;4.88;2.42;;;;;;;;;;5004071;28;20030;-65
2023/05/13 07:27:54;;;;;;;4.65;2.60;;;;;;;;;;5009844;28;20644;-66
2023/05/13 07:30:20;;;;;;;5.53;2.60;;;;;;;;;;5009883;28;20040;-65
2023/05/13 07:32:45;;;;;;;6.15;2.40;;;;;;;;;;5010017;28;20034;-65
2023/05/13 07:35:10;;;;;;;6.85;2.30;;;;;;;;;;5010761;28;20105;-65
2023/05/13 07:37:35;;;;;;;5.57;2.40;;;;;;;;;;5005210;28;20049;-65
2023/05/13 07:40:01;;;;;;;5.20;2.58;;;;;;;;;;5002568;28;20021;-66
2023/05/13 07:42:28;;;;;;;5.03;2.28;;;;;;;;;;5009846;28;20030;-67
2023/05/13 07:44:54;;;;;;;5.10;2.33;;;;;;;;;;5006857;28;20640;-66
2023/05/13 07:47:19;;;;;;;8.02;2.42;;;;;;;;;;5010995;28;20096;-66
2023/05/13 07:49:44;;;;;;;5.43;2.10;;;;;;;;;;5008238;28;20014;-64
2023/05/13 07:52:09;;;;;;;6.88;2.40;;;;;;;;;;5010132;28;20029;-66
2023/05/13 07:54:34;;;;;;;4.70;2.10;;;;;;;;;;5008702;28;20076;-66
2023/05/13 07:56:59;;;;;;;6.18;2.53;;;;;;;;;;5010348;28;20024;-66
2023/05/13 07:59:25;;;;;;;4.65;2.00;;;;;;;;;;5010377;28;20017;-66
2023/05/13 08:01:50;;;;;;;6.60;2.30;;;;;;;;;;5008910;28;20046;-66
2023/05/13 08:04:15;;;;;;;4.63;2.05;;;;;;;;;;5010490;28;20010;-66
2023/05/13 08:06:41;;;;;;;5.18;2.38;;;;;;;;;;5009507;28;20014;-66
2023/05/13 08:09:08;;;;;;;5.38;2.30;;;;;;;;;;5011352;28;20026;-66
2023/05/13 08:11:33;;;;;;;8.43;2.20;;;;;;;;;;5009994;28;20026;-66
2023/05/13 08:13:58;;;;;;;5.95;1.90;;;;;;;;;;5011748;28;20018;-66
2023/05/13 08:16:23;;;;;;;5.47;2.22;;;;;;;;;;5009864;28;20469;-66
2023/05/13 08:18:48;;;;;;;4.25;1.90;;;;;;;;;;5010180;28;20088;-65
2023/05/13 08:21:13;;;;;;;4.43;2.03;;;;;;;;;;5010234;28;20106;-65
2023/05/13 08:23:39;;;;;;;5.00;2.40;;;;;;;;;;5004589;28;20462;-64
2023/05/13 08:26:04;;;;;;;5.43;2.47;;;;;;;;;;5002322;28;20050;-65
2023/05/13 08:28:29;;;;;;;4.82;2.22;;;;;;;;;;5009998;28;20018;-66
2023/05/13 08:30:57;;;;;;;6.63;2.28;;;;;;;;;;5009195;28;20099;-65
2023/05/13 08:33:22;;;;;;;5.78;2.35;;;;;;;;;;5009733;28;20018;-66
2023/05/13 08:35:47;;;;;;;6.05;2.30;;;;;;;;;;5009226;28;20156;-65
2023/05/13 08:38:12;;;;;;;5.13;2.20;;;;;;;;;;5012704;28;20022;-65
2023/05/13 08:40:37;;;;;;;4.90;2.13;;;;;;;;;;5012132;28;20030;-66
2023/05/13 08:43:03;;;;;;;5.18;2.08;;;;;;;;;;5008803;28;20463;-66
2023/05/13 08:45:29;;;;;;;4.63;1.90;;;;;;;;;;5011805;28;20048;-66
2023/05/13 08:47:55;;;;;;;5.55;2.45;;;;;;;;;;5011039;28;20054;-65
2023/05/13 08:50:21;;;;;;;5.07;2.10;;;;;;;;;;5012268;28;20512;-66
2023/05/13 08:52:46;;;;;;;4.05;2.10;;;;;;;;;;5011744;28;20398;-66
2023/05/13 08:55:11;;;;;;;6.07;2.33;;;;;;;;;;5011160;28;20021;-65
2023/05/13 08:57:37;;;;;;;5.93;2.20;;;;;;;;;;5011530;28;20394;-65
2023/05/13 09:00:03;;;;;;;5.27;2.40;;;;;;;;;;5010847;28;20145;-65
2023/05/13 09:02:28;;;;;;;5.15;2.20;;;;;;;;;;5009301;28;20022;-65
2023/05/13 09:04:55;;;;;;;5.00;2.30;;;;;;;;;;5009557;28;20026;-65
2023/05/13 09:07:20;;;;;;;8.48;2.58;;;;;;;;;;5010814;28;20028;-66
2023/05/13 09:09:45;;;;;;;5.32;2.40;;;;;;;;;;5010857;28;20025;-66
2023/05/13 09:12:10;;;;;;;4.90;2.27;;;;;;;;;;5011086;28;20076;-65
2023/05/13 09:14:36;;;;;;;4.77;2.30;;;;;;;;;;5006593;28;20032;-65
2023/05/13 09:17:01;;;;;;;4.65;2.38;;;;;;;;;;5009944;28;20030;-65
2023/05/13 09:19:27;;;;;;;4.93;2.20;;;;;;;;;;5010375;28;20416;-67
2023/05/13 09:21:52;;;;;;;5.57;2.45;;;;;;;;;;5011818;28;20080;-67
2023/05/13 09:24:20;;;;;;;5.15;2.30;;;;;;;;;;5012450;28;20442;-67
2023/05/13 09:26:45;;;;;;;5.28;2.50;;;;;;;;;;5012913;28;20334;-65
2023/05/13 09:29:23;;;;;;;6.20;2.40;;;;;;;;;;5013035;28;20018;-67
2023/05/13 09:31:53;;;;;;;6.10;2.15;;;;;;;;;;5011903;28;20022;-67
2023/05/13 09:34:31;;;;;;;6.13;2.50;;;;;;;;;;5008779;28;20031;-66
2023/05/13 09:37:01;;;;;;;5.20;2.50;;;;;;;;;;5007565;28;20030;-66
2023/05/13 09:39:26;;;;;;;5.20;2.40;;;;;;;;;;5006517;28;20025;-67
2023/05/13 09:41:51;;;;;;;6.00;2.50;;;;;;;;;;5010352;28;20495;-65
2023/05/13 09:44:17;;;;;;;5.07;2.30;;;;;;;;;;5011510;28;20034;-65
2023/05/13 09:46:42;;;;;;;5.07;2.40;;;;;;;;;;5011863;28;20105;-65
2023/05/13 09:49:08;;;;;;;6.70;2.70;;;;;;;;;;5012550;28;20033;-66
2023/05/13 09:51:33;;;;;;;5.80;2.50;;;;;;;;;;5004637;28;20046;-66
2023/05/13 09:54:02;;;;;;;6.70;2.47;;;;;;;;;;5011728;28;20041;-64
2023/05/13 09:56:29;;;;;;;5.20;2.42;;;;;;;;;;5012280;28;20084;-65
2023/05/13 09:58:54;;;;;;;5.63;2.63;;;;;;;;;;5012202;28;20022;-64
2023/05/13 10:01:21;;;;;;;6.30;2.70;;;;;;;;;;5011664;28;20041;-65
2023/05/13 10:03:46;;;;;;;4.65;2.22;;;;;;;;;;5009922;28;20406;-67
2023/05/13 10:06:12;;;;;;;6.68;2.72;;;;;;;;;;5007286;28;20060;-65
2023/05/13 10:08:37;;;;;;;5.47;2.60;;;;;;;;;;5010423;28;20022;-64
2023/05/13 10:11:03;;;;;;;5.43;2.38;;;;;;;;;;5012003;28;20033;-65
2023/05/13 10:13:30;;;;;;;4.88;2.50;;;;;;;;;;5010696;28;20021;-66
2023/05/13 10:15:56;;;;;;;6.25;2.47;;;;;;;;;;5006431;28;20160;-66
2023/05/13 10:18:22;;;;;;;5.30;2.35;;;;;;;;;;5003624;28;20113;-66
2023/05/13 10:20:51;;;;;;;4.57;2.38;;;;;;;;;;5003637;28;20497;-67
2023/05/13 10:23:17;;;;;;;4.53;2.40;;;;;;;;;;5011556;28;20038;-66
2023/05/13 10:25:42;;;;;;;6.67;2.53;;;;;;;;;;5008972;28;20100;-66
2023/05/13 10:28:08;;;;;;;5.00;2.50;;;;;;;;;;5012111;28;20036;-65
2023/05/13 10:30:34;;;;;;;6.82;2.50;;;;;;;;;;5007115;28;20017;-65
2023/05/13 10:33:00;;;;;;;5.88;2.45;;;;;;;;;;5008203;28;20406;-65
2023/05/13 10:35:27;;;;;;;5.07;2.40;;;;;;;;;;5009126;28;20029;-65
2023/05/13 10:38:00;;;;;;;4.72;2.42;;;;;;;;;;5009398;28;20499;-65
2023/05/13 10:40:44;;;;;;;8.48;2.38;;;;;;;;;;5006120;28;20077;-64
2023/05/13 10:43:24;;;;;;;5.60;2.20;;;;;;;;;;5008550;28;20132;-65
2023/05/13 10:46:10;;;;;;;5.95;2.30;;;;;;;;;;5006059;28;20033;-64
2023/05/13 10:48:39;;;;;;;4.72;2.35;;;;;;;;;;5005721;28;20563;-65
2023/05/13 10:51:06;;;;;;;5.63;2.55;;;;;;;;;;5006473;28;20075;-65
2023/05/13 10:53:35;;;;;;;5.15;2.30;;;;;;;;;;5008165;28;20481;-65
2023/05/13 10:56:01;;;;;;;5.45;2.30;;;;;;;;;;5007559;28;20030;-65
2023/05/13 10:58:28;;;;;;;5.57;2.30;;;;;;;;;;5006111;28;20017;-66
2023/05/13 11:00:53;;;;;;;7.55;2.38;;;;;;;;;;5003712;28;20033;-65
2023/05/13 11:03:18;;;;;;;6.33;2.10;;;;;;;;;;5007733;28;20036;-66
2023/05/13 11:05:45;;;;;;;4.93;2.10;;;;;;;;;;5000153;28;20489;-64
2023/05/13 11:08:11;;;;;;;4.70;2.63;;;;;;;;;;5007080;28;20018;-66
2023/05/13 11:10:36;;;;;;;8.43;2.53;;;;;;;;;;5005059;28;20536;-64
2023/05/13 11:13:21;;;;;;;4.53;2.30;;;;;;;;;;5008739;28;20088;-66
2023/05/13 11:15:53;;;;;;;5.60;2.22;;;;;;;;;;5005586;28;20457;-65
2023/05/13 11:18:19;;;;;;;4.28;2.17;;;;;;;;;;5010065;28;20115;-68
2023/05/13 11:20:45;;;;;;;;;;;;;;;;;;5004161;28;20033;-66
2023/05/13 11:23:15;;;;;;;4.95;2.10;;;;;;;;;;5004636;28;19932;-68
2023/05/13 11:25:42;;;;;;;6.32;2.20;;;;;;;;;;5007098;28;20037;-64
2023/05/13 11:28:07;;;;;;;5.28;2.10;;;;;;;;;;5002864;28;20087;-65
2023/05/13 11:30:33;;;;;;;4.45;2.33;;;;;;;;;;5006339;28;20030;-65
2023/05/13 11:32:58;;;;;;;5.85;1.90;;;;;;;;;;5005423;28;20017;-65
2023/05/13 11:35:27;;;;;;;5.47;2.30;;;;;;;;;;5006593;28;20105;-65
2023/05/13 11:37:53;;;;;;;4.45;2.15;;;;;;;;;;5009717;28;20080;-65
2023/05/13 11:40:22;;;;;;;4.97;2.03;;;;;;;;;;5011031;28;20034;-64
2023/05/13 11:42:47;;;;;;;5.10;1.90;;;;;;;;;;5013019;28;20076;-66
2023/05/13 11:45:12;;;;;;;3.87;1.70;;;;;;;;;;5012624;28;20018;-65
2023/05/13 11:47:37;;;;;;;3.90;1.80;;;;;;;;;;5013645;28;20459;-66
2023/05/13 11:50:16;;;;;;;4.87;1.70;;;;;;;;;;5012653;28;20474;-64
2023/05/13 11:52:41;;;;;;;3.40;1.63;;;;;;;;;;5011168;28;20386;-65
2023/05/13 11:55:06;;;;;;;4.23;1.60;;;;;;;;;;5013017;28;20022;-65
2023/05/13 11:57:31;;;;;;;4.78;2.00;;;;;;;;;;5013325;28;20026;-65
2023/05/13 12:00:04;;;;;;;7.07;2.05;;;;;;;;;;5011967;28;20026;-65
2023/05/13 12:02:32;;;;;;;4.93;1.92;;;;;;;;;;5011649;28;20026;-65
2023/05/13 12:05:00;;;;;;;5.50;1.88;;;;;;;;;;5013806;28;20026;-64
2023/05/13 12:07:26;;;;;;;5.03;1.83;;;;;;;;;;5012492;28;20433;-65
2023/05/13 12:09:51;;;;;;;5.27;1.80;;;;;;;;;;5009359;28;20018;-64
2023/05/13 12:12:17;;;;;;;4.93;2.00;;;;;;;;;;5012203;28;20096;-65
2023/05/13 12:14:44;;;;;;;4.65;1.95;;;;;;;;;;5010293;28;20382;-65
2023/05/13 12:17:11;;;;;;;3.70;1.60;;;;;;;;;;5010155;28;20056;-66
2023/05/13 12:19:36;;;;;;;4.00;1.60;;;;;;;;;;5009410;28;20481;-65
2023/05/13 12:22:01;;;;;;;4.30;1.67;;;;;;;;;;5010939;28;20184;-66
2023/05/13 12:24:31;;;;;;;4.72;1.60;;;;;;;;;;5010607;28;20022;-66
2023/05/13 12:27:03;;;;;;;3.60;1.55;;;;;;;;;;5007427;28;20073;-65
2023/05/13 12:29:37;;;;;;;6.22;1.70;;;;;;;;;;5008369;28;20157;-64
2023/05/13 12:32:04;;;;;;;3.70;1.70;;;;;;;;;;5004971;28;20037;-65
2023/05/13 12:34:31;;;;;;;3.92;1.73;;;;;;;;;;5010082;28;20045;-65
2023/05/13 12:37:07;;;;;;;4.38;1.83;;;;;;;;;;5007950;28;20145;-65
2023/05/13 12:39:33;;;;;;;4.18;1.75;;;;;;;;;;5013817;28;20425;-66
2023/05/13 12:41:58;;;;;;;3.92;1.52;;;;;;;;;;5011198;28;20028;-65
2023/05/13 12:44:25;;;;;;;3.80;1.65;;;;;;;;;;5007964;28;20046;-66
2023/05/13 12:46:54;;;;;;;4.32;1.60;;;;;;;;;;4995003;28;20568;-65
2023/05/13 12:49:19;;;;;;;3.60;1.63;;;;;;;;;;5009906;28;20396;-66
2023/05/13 12:51:44;;;;;;;4.50;1.63;;;;;;;;;;5011694;28;20092;-65
2023/05/13 12:54:10;;;;;;;7.47;1.80;;;;;;;;;;5011187;28;20026;-66
2023/05/13 12:56:36;;;;;;;4.22;1.80;;;;;;;;;;5012331;28;20028;-65
2023/05/13 12:59:01;;;;;;;5.40;1.70;;;;;;;;;;5011154;28;20540;-66
2023/05/13 13:01:26;;;;;;;4.20;1.80;;;;;;;;;;5008885;28;20010;-65
2023/05/13 13:03:51;;;;;;;4.10;1.70;;;;;;;;;;5011250;28;20567;-66
2023/05/13 13:06:16;;;;;;;6.97;2.13;;;;;;;;;;5012417;28;20036;-66
2023/05/13 13:08:42;;;;;;;5.23;1.70;;;;;;;;;;5008036;28;20112;-66
2023/05/13 13:11:07;;;;;;;4.47;1.87;;;;;;;;;;5007738;28;20060;-64
2023/05/13 13:13:32;;;;;;;4.88;1.90;;;;;;;;;;5011257;28;20176;-64
2023/05/13 13:15:58;;;;;;;3.70;1.60;;;;;;;;;;5011332;28;20021;-66
2023/05/13 13:18:24;;;;;;;4.03;1.77;;;;;;;;;;5010090;28;20381;-65
2023/05/13 13:20:50;;;;;;;5.35;1.95;;;;;;;;;;5010715;28;20040;-66
2023/05/13 13:23:15;;;;;;;4.15;1.80;;;;;;;;;;5010271;28;20018;-66
2023/05/13 13:25:40;;;;;;;4.00;2.00;;;;;;;;;;5010101;28;20195;-66
2023/05/13 13:28:06;;;;;;;4.57;2.00;;;;;;;;;;5008891;28;20014;-66
2023/05/13 13:30:31;;;;;;;6.00;2.07;;;;;;;;;;5007285;28;20021;-65
2023/05/13 13:32:56;;;;;;;5.07;2.00;;;;;;;;;;5010445;28;20037;-66
2023/05/13 13:35:21;;;;;;;3.70;1.70;;;;;;;;;;5012050;28;20026;-66
2023/05/13 13:37:46;;;;;;;3.73;1.70;;;;;;;;;;5010201;28;20044;-65
2023/05/13 13:40:11;;;;;;;4.90;2.10;;;;;;;;;;5009537;28;20044;-66
2023/05/13 13:42:37;;;;;;;4.80;1.90;;;;;;;;;;5007431;28;20046;-66
2023/05/13 13:45:02;;;;;;;4.35;2.05;;;;;;;;;;5009953;28;20036;-65
2023/05/13 13:47:27;;;;;;;4.18;1.75;;;;;;;;;;5010145;28;20402;-66
2023/05/13 13:49:52;;;;;;;4.67;2.07;;;;;;;;;;5010580;28;20018;-66
2023/05/13 13:52:17;;;;;;;4.63;1.83;;;;;;;;;;5010242;28;20033;-66
2023/05/13 13:54:43;;;;;;;4.55;2.05;;;;;;;;;;5004560;28;20022;-66
2023/05/13 13:57:08;;;;;;;5.13;2.10;;;;;;;;;;5009220;28;20026;-66
2023/05/13 13:59:33;;;;;;;4.93;2.00;;;;;;;;;;5010312;28;20394;-64
2023/05/13 14:01:58;;;;;;;4.10;1.80;;;;;;;;;;5012690;28;20440;-66
2023/05/13 14:04:26;;;;;;;4.38;2.00;;;;;;;;;;5010255;28;20385;-65
2023/05/13 14:06:52;;;;;;;5.57;2.03;;;;;;;;;;5008096;28;20109;-66
2023/05/13 14:09:17;;;;;;;4.60;2.10;;;;;;;;;;5009764;28;20117;-66
2023/05/13 14:11:43;;;;;;;4.57;2.08;;;;;;;;;;5010546;28;20478;-66
2023/05/13 14:14:08;;;;;;;6.90;2.23;;;;;;;;;;5010236;28;20037;-66
2023/05/13 14:16:33;;;;;;;6.60;2.13;;;;;;;;;;5011946;28;20033;-64
2023/05/13 14:18:59;;;;;;;4.55;2.10;;;;;;;;;;5009339;28;20028;-67
2023/05/13 14:21:24;;;;;;;6.18;2.63;;;;;;;;;;5009923;28;20018;-65
2023/05/13 14:23:49;;;;;;;5.55;2.15;;;;;;;;;;5009194;28;20022;-66
2023/05/13 14:26:14;;;;;;;5.83;2.50;;;;;;;;;;5007074;28;20065;-65
2023/05/13 14:28:40;;;;;;;5.07;2.13;;;;;;;;;;5009001;28;20026;-67
2023/05/13 14:31:05;;;;;;;4.30;1.90;;;;;;;;;;5009842;28;20983;-65
2023/05/13 14:33:30;;;;;;;4.93;1.95;;;;;;;;;;5004235;28;20147;-66
2023/05/13 14:35:55;;;;;;;4.00;1.92;;;;;;;;;;5008002;28;20038;-67